createdAt,value
2022-09-25T00:00:09.635Z,10.2
2022-09-25T00:03:09.782Z,10.2
2022-09-25T00:06:09.549Z,10.1
2022-09-25T00:09:12.585Z,10.1
2022-09-25T00:12:09.560Z,10.1
2022-09-25T00:15:09.487Z,10
2022-09-25T00:18:12.015Z,10.1
2022-09-25T00:21:09.685Z,10
2022-09-25T00:24:09.885Z,10.1
2022-09-25T00:27:09.509Z,10.1
2022-09-25T00:30:09.636Z,10.1
2022-09-25T00:33:09.486Z,10.1
2022-09-25T00:36:09.538Z,10.1
2022-09-25T00:39:09.689Z,10.4
2022-09-25T00:42:09.638Z,10.6
2022-09-25T00:45:09.849Z,10.8
2022-09-25T00:48:09.620Z,11
2022-09-25T00:51:09.561Z,11.1
2022-09-25T00:54:09.542Z,11.3
2022-09-25T00:57:09.711Z,11.3
2022-09-25T01:00:09.560Z,11.4
2022-09-25T01:03:09.854Z,11.5
2022-09-25T01:06:09.506Z,11.6
2022-09-25T01:09:09.608Z,11.6
2022-09-25T01:12:09.584Z,11.6
2022-09-25T01:15:09.712Z,11.7
2022-09-25T01:18:09.652Z,11.7
2022-09-25T01:21:09.556Z,11.7
2022-09-25T01:24:09.826Z,11.8
2022-09-25T01:27:10.325Z,11.8
2022-09-25T01:30:09.640Z,11.8
2022-09-25T01:33:09.533Z,11.7
2022-09-25T01:36:09.587Z,11.7
2022-09-25T01:39:09.583Z,11.6
2022-09-25T01:42:09.759Z,11.5
2022-09-25T01:45:09.562Z,11.4
2022-09-25T01:48:09.552Z,11.4
2022-09-25T01:51:09.668Z,11.4
2022-09-25T01:54:09.529Z,11.3
2022-09-25T01:57:09.490Z,11.2
2022-09-25T02:00:09.687Z,11.1
2022-09-25T02:03:09.816Z,11.1
2022-09-25T02:06:09.524Z,10.9
2022-09-25T02:09:09.589Z,10.9
2022-09-25T02:12:09.478Z,10.8
2022-09-25T02:15:09.614Z,10.7
2022-09-25T02:18:09.900Z,10.6
2022-09-25T02:21:09.533Z,10.6
2022-09-25T02:24:09.659Z,10.6
2022-09-25T02:27:09.469Z,10.5
2022-09-25T02:30:09.596Z,10.5
2022-09-25T02:33:09.501Z,10.4
2022-09-25T02:36:09.567Z,10.4
2022-09-25T02:39:09.505Z,10.4
2022-09-25T02:42:09.586Z,10.3
2022-09-25T02:45:09.563Z,10.3
2022-09-25T02:48:09.528Z,10.3
2022-09-25T02:51:09.471Z,10.3
2022-09-25T02:54:09.547Z,10.3
2022-09-25T02:57:13.286Z,10.3
2022-09-25T03:00:09.632Z,10.4
2022-09-25T03:03:09.747Z,10.4
2022-09-25T03:06:09.483Z,10.5
2022-09-25T03:09:09.488Z,10.6
2022-09-25T03:12:09.503Z,10.6
2022-09-25T03:15:09.513Z,10.8
2022-09-25T03:18:09.507Z,11
2022-09-25T03:21:09.574Z,11.1
2022-09-25T03:24:09.765Z,11.3
2022-09-25T03:27:09.564Z,11.3
2022-09-25T03:30:09.552Z,11.4
2022-09-25T03:33:09.517Z,11.4
2022-09-25T03:36:09.603Z,11.5
2022-09-25T03:39:09.517Z,11.5
2022-09-25T03:42:09.518Z,11.5
2022-09-25T03:45:09.548Z,11.5
2022-09-25T03:48:09.536Z,11.6
2022-09-25T03:51:09.550Z,11.6
2022-09-25T03:54:09.656Z,11.6
2022-09-25T03:57:09.493Z,11.6
2022-09-25T04:00:09.592Z,11.6
2022-09-25T04:03:09.529Z,11.6
2022-09-25T04:06:09.589Z,11.6
2022-09-25T04:09:09.524Z,11.6
2022-09-25T04:12:09.514Z,11.6
2022-09-25T04:15:09.467Z,11.6
2022-09-25T04:18:15.131Z,11.6
2022-09-25T04:21:09.509Z,11.6
2022-09-25T04:24:09.749Z,11.6
2022-09-25T04:27:09.529Z,11.6
2022-09-25T04:30:09.513Z,11.6
2022-09-25T04:33:09.513Z,11.6
2022-09-25T04:36:09.656Z,11.6
2022-09-25T04:39:09.509Z,11.6
2022-09-25T04:42:09.502Z,11.6
2022-09-25T04:45:09.530Z,11.6
2022-09-25T04:48:09.528Z,11.6
2022-09-25T04:51:09.521Z,11.7
2022-09-25T04:54:09.573Z,11.7
2022-09-25T04:57:09.502Z,11.7
2022-09-25T05:00:09.566Z,11.7
2022-09-25T05:03:10.408Z,11.7
2022-09-25T05:06:09.529Z,11.7
2022-09-25T05:09:09.544Z,11.7
2022-09-25T05:12:09.501Z,11.7
2022-09-25T05:15:09.537Z,11.7
2022-09-25T05:18:09.579Z,11.7
2022-09-25T05:21:09.521Z,11.7
2022-09-25T05:24:09.665Z,11.6
2022-09-25T05:27:09.518Z,11.6
2022-09-25T05:30:09.897Z,11.6
2022-09-25T05:33:09.718Z,11.6
2022-09-25T05:36:09.628Z,11.6
2022-09-25T05:39:15.732Z,11.7
2022-09-25T05:42:09.563Z,11.6
2022-09-25T05:45:16.579Z,11.6
2022-09-25T05:48:09.591Z,11.6
2022-09-25T05:51:09.610Z,11.6
2022-09-25T05:54:09.661Z,11.7
2022-09-25T05:57:09.548Z,11.6
2022-09-25T06:00:09.737Z,11.6
2022-09-25T06:03:10.056Z,11.7
2022-09-25T06:06:09.544Z,11.7
2022-09-25T06:09:09.568Z,11.8
2022-09-25T06:12:09.492Z,11.7
2022-09-25T06:15:09.541Z,11.8
2022-09-25T06:18:09.587Z,11.8
2022-09-25T06:21:09.548Z,11.8
2022-09-25T06:24:09.646Z,11.8
2022-09-25T06:27:09.530Z,11.8
2022-09-25T06:30:09.634Z,11.8
2022-09-25T06:33:09.613Z,11.9
2022-09-25T06:36:09.936Z,11.9
2022-09-25T06:39:09.602Z,11.9
2022-09-25T06:42:09.476Z,11.9
2022-09-25T06:45:09.559Z,11.9
2022-09-25T06:48:09.532Z,12
2022-09-25T06:51:09.595Z,12
2022-09-25T06:54:09.573Z,12
2022-09-25T06:57:09.508Z,12.1
2022-09-25T07:00:09.559Z,12.1
2022-09-25T07:03:10.110Z,12.1
2022-09-25T07:06:09.607Z,12.1
2022-09-25T07:09:09.688Z,12.1
2022-09-25T07:12:09.535Z,12.1
2022-09-25T07:15:09.556Z,12.2
2022-09-25T07:18:09.568Z,12.2
2022-09-25T07:21:09.552Z,12.2
2022-09-25T07:24:09.802Z,12.3
2022-09-25T07:27:09.545Z,12.3
2022-09-25T07:30:09.584Z,12.3
2022-09-25T07:33:09.513Z,12.4
2022-09-25T07:36:09.542Z,12.4
2022-09-25T07:39:09.524Z,12.4
2022-09-25T07:42:09.568Z,12.5
2022-09-25T07:45:09.502Z,12.5
2022-09-25T07:48:09.633Z,12.5
2022-09-25T07:51:09.508Z,12.4
2022-09-25T07:54:09.657Z,12.5
2022-09-25T07:57:09.503Z,12.5
2022-09-25T08:00:09.604Z,12.5
2022-09-25T08:03:10.083Z,12.5
2022-09-25T08:06:09.555Z,12.5
2022-09-25T08:09:15.404Z,12.6
2022-09-25T08:12:09.540Z,12.6
2022-09-25T08:15:09.589Z,12.5
2022-09-25T08:18:09.523Z,12.6
2022-09-25T08:21:09.561Z,12.5
2022-09-25T08:24:09.749Z,12.5
2022-09-25T08:27:09.528Z,12.5
2022-09-25T08:30:09.632Z,12.5
2022-09-25T08:33:15.596Z,12.5
2022-09-25T08:36:09.556Z,12.6
2022-09-25T08:39:09.587Z,12.7
2022-09-25T08:42:09.550Z,12.8
2022-09-25T08:45:31.603Z,12.9
2022-09-25T08:48:09.573Z,12.9
2022-09-25T08:51:09.560Z,12.9
2022-09-25T08:54:09.685Z,13.1
2022-09-25T08:57:09.618Z,13.3
2022-09-25T09:00:11.885Z,13.3
2022-09-25T09:03:09.627Z,13.4
2022-09-25T09:06:09.570Z,13.4
2022-09-25T09:09:09.598Z,13.4
2022-09-25T09:12:09.566Z,13.3
2022-09-25T09:15:09.565Z,13.3
2022-09-25T09:18:09.659Z,13.3
2022-09-25T09:21:09.609Z,13.3
2022-09-25T09:24:09.598Z,13.3
2022-09-25T09:27:09.560Z,13.3
2022-09-25T09:30:15.203Z,13.4
2022-09-25T09:33:09.570Z,13.4
2022-09-25T09:36:09.498Z,13.3
2022-09-25T09:39:09.548Z,13.3
2022-09-25T09:42:09.563Z,13.3
2022-09-25T09:45:09.520Z,13.3
2022-09-25T09:48:09.502Z,13.3
2022-09-25T09:51:09.539Z,13.4
2022-09-25T09:54:09.756Z,13.4
2022-09-25T09:57:09.495Z,13.5
2022-09-25T10:00:14.410Z,13.6
2022-09-25T10:03:10.463Z,13.6
2022-09-25T10:06:09.550Z,13.6
2022-09-25T10:09:09.584Z,13.5
2022-09-25T10:12:09.522Z,13.5
2022-09-25T10:15:09.590Z,13.5
2022-09-25T10:18:09.607Z,13.5
2022-09-25T10:21:09.562Z,13.6
2022-09-25T10:24:09.750Z,13.6
2022-09-25T10:27:09.695Z,13.6
2022-09-25T10:30:09.586Z,13.4
2022-09-25T10:33:09.532Z,13.3
2022-09-25T10:36:09.525Z,13.3
2022-09-25T10:39:53.623Z,13.2
2022-09-25T10:42:09.515Z,13.1
2022-09-25T10:45:09.656Z,13.1
2022-09-25T10:48:09.586Z,13
2022-09-25T10:51:09.583Z,13.1
2022-09-25T10:54:09.519Z,13.2
2022-09-25T10:57:09.641Z,13.4
2022-09-25T11:00:09.655Z,13.6
2022-09-25T11:03:17.420Z,13.8
2022-09-25T11:06:09.541Z,13.8
2022-09-25T11:09:09.835Z,14
2022-09-25T11:12:09.535Z,13.9
2022-09-25T11:15:09.587Z,13.9
2022-09-25T11:18:09.609Z,13.9
2022-09-25T11:21:09.572Z,13.9
2022-09-25T11:24:09.707Z,13.9
2022-09-25T11:27:09.571Z,13.8
2022-09-25T11:30:09.565Z,13.8
2022-09-25T11:33:09.521Z,13.8
2022-09-25T11:36:09.685Z,13.8
2022-09-25T11:39:09.696Z,13.9
2022-09-25T11:42:09.535Z,13.9
2022-09-25T11:45:09.559Z,13.9
2022-09-25T11:48:09.579Z,13.9
2022-09-25T11:51:09.533Z,13.9
2022-09-25T11:54:43.796Z,14
2022-09-25T11:57:09.557Z,14.1
2022-09-25T12:00:09.597Z,14.1
2022-09-25T12:03:09.562Z,14.2
2022-09-25T12:06:09.561Z,14.1
2022-09-25T12:09:09.583Z,14.1
2022-09-25T12:12:09.639Z,14.2
2022-09-25T12:15:09.564Z,14.2
2022-09-25T12:18:09.524Z,14.1
2022-09-25T12:21:09.525Z,13.9
2022-09-25T12:24:09.744Z,13.9
2022-09-25T12:27:09.562Z,14
2022-09-25T12:30:09.710Z,14
2022-09-25T12:33:09.566Z,13.9
2022-09-25T12:36:09.556Z,13.9
2022-09-25T12:39:09.486Z,13.8
2022-09-25T12:42:09.764Z,13.8
2022-09-25T12:45:09.548Z,14
2022-09-25T12:48:09.560Z,14.2
2022-09-25T12:51:14.622Z,14.3
2022-09-25T12:54:09.653Z,14.4
2022-09-25T12:57:09.479Z,14.4
2022-09-25T13:00:09.617Z,14.6
2022-09-25T13:03:09.512Z,14.6
2022-09-25T13:06:09.519Z,14.4
2022-09-25T13:09:09.610Z,14.4
2022-09-25T13:12:09.556Z,14.6
2022-09-25T13:15:09.495Z,14.8
2022-09-25T13:18:09.550Z,14.9
2022-09-25T13:21:09.535Z,14.9
2022-09-25T13:24:09.747Z,14.9
2022-09-25T13:27:09.526Z,15
2022-09-25T13:30:09.708Z,15
2022-09-25T13:33:09.538Z,15.1
2022-09-25T13:36:09.831Z,15.1
2022-09-25T13:39:09.579Z,15.2
2022-09-25T13:42:09.528Z,15.3
2022-09-25T13:45:09.524Z,15.2
2022-09-25T13:48:16.548Z,15.3
2022-09-25T13:51:09.585Z,15.4
2022-09-25T13:54:09.506Z,15.6
2022-09-25T13:57:09.547Z,15.8
2022-09-25T14:00:09.580Z,16
2022-09-25T14:03:09.569Z,16.3
2022-09-25T14:06:09.590Z,16.3
2022-09-25T14:09:09.791Z,16.3
2022-09-25T14:12:09.522Z,16
2022-09-25T14:15:09.577Z,15.8
2022-09-25T14:18:09.748Z,15.9
2022-09-25T14:21:09.564Z,15.9
2022-09-25T14:24:09.579Z,15.8
2022-09-25T14:27:09.569Z,15.6
2022-09-25T14:30:09.746Z,15.5
2022-09-25T14:33:09.499Z,15.4
2022-09-25T14:36:09.632Z,15.4
2022-09-25T14:39:09.744Z,15.4
2022-09-25T14:42:09.536Z,15.6
2022-09-25T14:45:09.574Z,15.6
2022-09-25T14:48:09.596Z,15.4
2022-09-25T14:51:10.418Z,15.3
2022-09-25T14:54:09.814Z,14.9
2022-09-25T14:57:09.551Z,14.8
2022-09-25T15:00:09.789Z,14.7
2022-09-25T15:03:09.646Z,15
2022-09-25T15:06:16.116Z,15.1
2022-09-25T15:09:09.541Z,15.2
2022-09-25T15:12:09.521Z,15.1
2022-09-25T15:15:12.217Z,15.2
2022-09-25T15:18:09.520Z,15.3
2022-09-25T15:21:09.524Z,15.6
2022-09-25T15:24:09.690Z,15.6
2022-09-25T15:27:09.598Z,15.6
2022-09-25T15:30:09.671Z,15.6
2022-09-25T15:33:10.167Z,15.9
2022-09-25T15:36:09.578Z,15.9
2022-09-25T15:39:09.671Z,16.1
2022-09-25T15:42:09.546Z,16.3
2022-09-25T15:45:09.592Z,16.1
2022-09-25T15:48:09.509Z,15.9
2022-09-25T15:51:09.509Z,15.6
2022-09-25T15:54:09.815Z,15.4
2022-09-25T15:57:09.629Z,15.1
2022-09-25T16:00:09.776Z,15
2022-09-25T16:03:09.771Z,14.8
2022-09-25T16:06:09.626Z,14.7
2022-09-25T16:09:09.829Z,14.6
2022-09-25T16:12:09.552Z,14.4
2022-09-25T16:15:09.609Z,14.4
2022-09-25T16:18:14.906Z,14.3
2022-09-25T16:21:09.553Z,14.3
2022-09-25T16:24:09.582Z,14.2
2022-09-25T16:27:09.530Z,14.2
2022-09-25T16:30:13.705Z,14.1
2022-09-25T16:33:09.539Z,14.2
2022-09-25T16:36:26.129Z,14.2
2022-09-25T16:39:10.650Z,14.1
2022-09-25T16:42:09.574Z,14.1
2022-09-25T16:45:09.470Z,14
2022-09-25T16:48:09.586Z,13.9
2022-09-25T16:51:09.473Z,13.9
2022-09-25T16:54:09.574Z,13.9
2022-09-25T16:57:09.527Z,13.8
2022-09-25T17:00:09.573Z,13.8
2022-09-25T17:03:10.039Z,13.8
2022-09-25T17:06:09.573Z,13.7
2022-09-25T17:09:09.750Z,13.7
2022-09-25T17:12:09.681Z,13.7
2022-09-25T17:15:09.505Z,13.7
2022-09-25T17:18:09.490Z,13.6
2022-09-25T17:21:09.453Z,13.6
2022-09-25T17:24:09.545Z,13.5
2022-09-25T17:27:09.502Z,13.4
2022-09-25T17:30:09.610Z,13.4
2022-09-25T17:33:09.519Z,13.3
2022-09-25T17:36:09.534Z,13.3
2022-09-25T17:39:09.862Z,13.2
2022-09-25T17:42:09.550Z,13.1
2022-09-25T17:45:09.517Z,13.1
2022-09-25T17:48:09.504Z,12.9
2022-09-25T17:51:09.483Z,12.8
2022-09-25T17:54:09.569Z,12.6
2022-09-25T17:57:09.483Z,12.4
2022-09-25T18:00:09.579Z,12.3
2022-09-25T18:03:10.095Z,12.2
2022-09-25T18:06:09.520Z,12.1
2022-09-25T18:09:09.838Z,12.1
2022-09-25T18:12:09.589Z,11.9
2022-09-25T18:15:09.539Z,11.8
2022-09-25T18:18:09.739Z,11.8
2022-09-25T18:21:16.398Z,11.8
2022-09-25T18:24:09.525Z,11.8
2022-09-25T18:27:09.513Z,11.7
2022-09-25T18:30:09.484Z,11.6
2022-09-25T18:33:09.550Z,11.4
2022-09-25T18:36:09.502Z,11.4
2022-09-25T18:39:09.832Z,11.3
2022-09-25T18:42:09.491Z,11.1
2022-09-25T18:45:09.483Z,10.9
2022-09-25T18:48:09.492Z,10.9
2022-09-25T18:51:09.454Z,10.8
2022-09-25T18:54:09.520Z,10.7
2022-09-25T18:57:09.520Z,10.6
2022-09-25T19:00:09.531Z,10.6
2022-09-25T19:03:10.336Z,10.6
2022-09-25T19:06:09.545Z,10.7
2022-09-25T19:09:16.577Z,10.8
2022-09-25T19:12:09.528Z,10.8
2022-09-25T19:15:09.500Z,10.9
2022-09-25T19:18:09.495Z,11
2022-09-25T19:21:09.509Z,11.1
2022-09-25T19:24:09.478Z,11.1
2022-09-25T19:27:09.497Z,11.1
2022-09-25T19:30:09.523Z,11.1
2022-09-25T19:33:09.513Z,11.1
2022-09-25T19:36:09.571Z,11.1
2022-09-25T19:39:09.646Z,11.1
2022-09-25T19:42:09.516Z,11
2022-09-25T19:45:09.550Z,10.9
2022-09-25T19:48:09.485Z,10.8
2022-09-25T19:51:09.576Z,10.7
2022-09-25T19:54:09.474Z,10.6
2022-09-25T19:57:09.530Z,10.5
2022-09-25T20:00:09.700Z,10.4
2022-09-25T20:03:10.033Z,10.3
2022-09-25T20:06:09.507Z,10.3
2022-09-25T20:09:09.474Z,10.3
2022-09-25T20:12:09.503Z,10.2
2022-09-25T20:15:09.488Z,10.1
2022-09-25T20:18:09.567Z,10.1
2022-09-25T20:21:09.493Z,10
2022-09-25T20:24:09.470Z,9.9
2022-09-25T20:27:09.526Z,9.9
2022-09-25T20:30:09.479Z,9.9
2022-09-25T20:33:09.552Z,9.8
2022-09-25T20:36:09.529Z,9.8
2022-09-25T20:39:09.558Z,9.8
2022-09-25T20:42:09.511Z,9.8
2022-09-25T20:45:09.779Z,9.8
2022-09-25T20:48:09.489Z,9.8
2022-09-25T20:51:09.442Z,9.7
2022-09-25T20:54:09.833Z,9.7
2022-09-25T20:57:09.502Z,9.6
2022-09-25T21:00:09.565Z,9.6
2022-09-25T21:03:10.079Z,9.6
2022-09-25T21:06:09.514Z,9.5
2022-09-25T21:09:09.536Z,9.4
2022-09-25T21:12:09.466Z,9.4
2022-09-25T21:15:09.542Z,9.4
2022-09-25T21:18:09.533Z,9.4
2022-09-25T21:21:09.471Z,9.4
2022-09-25T21:24:09.619Z,9.3
2022-09-25T21:27:09.469Z,9.1
2022-09-25T21:30:09.467Z,8.8
2022-09-25T21:33:09.460Z,8.5
2022-09-25T21:36:09.507Z,8.3
2022-09-25T21:39:09.634Z,8.1
2022-09-25T21:42:09.566Z,8
2022-09-25T21:45:09.483Z,7.9
2022-09-25T21:48:09.507Z,7.8
2022-09-25T21:51:09.473Z,7.7
2022-09-25T21:54:09.508Z,7.7
2022-09-25T21:57:09.470Z,7.6
2022-09-25T22:00:09.733Z,7.6
2022-09-25T22:03:10.039Z,7.6
2022-09-25T22:06:09.431Z,7.6
2022-09-25T22:09:09.535Z,7.5
2022-09-25T22:12:09.489Z,7.3
2022-09-25T22:15:09.508Z,7.1
2022-09-25T22:18:09.504Z,7.1
2022-09-25T22:21:09.485Z,7.2
2022-09-25T22:24:09.474Z,7.2
2022-09-25T22:27:09.541Z,7.2
2022-09-25T22:30:09.514Z,7.2
2022-09-25T22:33:09.499Z,7.1
2022-09-25T22:36:09.511Z,6.8
2022-09-25T22:39:09.669Z,6.7
2022-09-25T22:42:09.504Z,6.6
2022-09-25T22:45:09.503Z,6.6
2022-09-25T22:48:09.588Z,6.5
2022-09-25T22:51:09.478Z,6.4
2022-09-25T22:54:09.484Z,6.3
2022-09-25T22:57:09.536Z,6.2
2022-09-25T23:00:09.566Z,6.1
2022-09-25T23:03:09.466Z,5.9
2022-09-25T23:06:09.490Z,5.9
2022-09-25T23:09:09.622Z,5.8
2022-09-25T23:12:09.502Z,5.7
2022-09-25T23:15:09.453Z,5.8
2022-09-25T23:18:09.527Z,5.8
2022-09-25T23:21:09.539Z,5.7
2022-09-25T23:24:09.503Z,5.7
2022-09-25T23:27:09.565Z,5.7
2022-09-25T23:30:09.470Z,5.7
2022-09-25T23:33:09.524Z,5.7
2022-09-25T23:36:09.465Z,5.6
2022-09-25T23:39:09.654Z,5.6
2022-09-25T23:42:09.455Z,5.6
2022-09-25T23:45:09.519Z,5.5
2022-09-25T23:48:09.493Z,5.4
2022-09-25T23:51:09.516Z,5.4
2022-09-25T23:54:09.538Z,5.4
2022-09-25T23:57:09.477Z,5.4
